createdAt,value
2018-03-19T00:01:14.745Z,5.82
2018-03-19T00:03:44.565Z,6.03
2018-03-19T00:06:14.351Z,6.07
2018-03-19T00:08:44.137Z,5.47
2018-03-19T00:11:14.014Z,5.07
2018-03-19T00:13:43.809Z,5.87
2018-03-19T00:16:13.621Z,6.50
2018-03-19T00:18:43.421Z,5.70
2018-03-19T00:21:13.226Z,5.30
2018-03-19T00:23:43.027Z,6.03
2018-03-19T00:26:12.861Z,5.55
2018-03-19T00:28:42.705Z,5.55
2018-03-19T00:31:12.533Z,5.00
2018-03-19T00:33:42.336Z,5.47
2018-03-19T00:36:12.309Z,4.97
2018-03-19T00:38:42.210Z,6.40
2018-03-19T00:41:12.010Z,6.30
2018-03-19T00:43:41.843Z,5.95
2018-03-19T00:46:11.641Z,6.03
2018-03-19T00:48:41.486Z,5.72
2018-03-19T00:51:11.277Z,6.43
2018-03-19T00:53:41.130Z,4.97
2018-03-19T00:56:10.930Z,6.25
2018-03-19T00:58:40.724Z,5.55
2018-03-19T01:01:10.524Z,4.85
2018-03-19T01:03:40.321Z,5.60
2018-03-19T01:06:10.182Z,6.00
2018-03-19T01:08:40.000Z,6.05
2018-03-19T01:11:09.810Z,6.28
2018-03-19T01:13:39.622Z,5.80
2018-03-19T01:16:09.444Z,6.22
2018-03-19T01:18:39.246Z,5.70
2018-03-19T01:21:09.048Z,6.28
2018-03-19T01:23:38.870Z,6.28
2018-03-19T01:26:08.703Z,6.18
2018-03-19T01:28:38.510Z,7.07
2018-03-19T01:31:08.376Z,6.15
2018-03-19T01:33:38.211Z,5.55
2018-03-19T01:36:08.022Z,6.72
2018-03-19T01:38:37.838Z,5.80
2018-03-19T01:41:07.707Z,6.22
2018-03-19T01:43:37.639Z,7.30
2018-03-19T01:46:07.447Z,7.03
2018-03-19T01:48:37.042Z,5.80
2018-03-19T01:51:06.900Z,6.18
2018-03-19T01:53:36.915Z,5.97
2018-03-19T01:56:06.823Z,6.32
2018-03-19T01:58:36.645Z,6.30
2018-03-19T02:01:06.440Z,6.57
2018-03-19T02:03:36.246Z,6.05
2018-03-19T02:06:05.764Z,5.78
2018-03-19T02:08:35.546Z,5.90
2018-03-19T02:11:05.374Z,6.90
2018-03-19T02:13:35.191Z,6.18
2018-03-19T02:16:05.022Z,6.18
2018-03-19T02:18:34.595Z,7.55
2018-03-19T02:21:04.405Z,6.70
2018-03-19T02:23:34.216Z,6.22
2018-03-19T02:26:04.081Z,4.80
2018-03-19T02:28:33.898Z,5.75
2018-03-19T02:31:03.782Z,6.25
2018-03-19T02:33:33.585Z,5.55
2018-03-19T02:36:03.401Z,6.87
2018-03-19T02:38:33.224Z,7.18
2018-03-19T02:41:02.746Z,5.62
2018-03-19T02:43:32.602Z,6.32
2018-03-19T02:46:02.452Z,7.25
2018-03-19T02:48:32.247Z,6.40
2018-03-19T02:51:02.108Z,7.20
2018-03-19T02:53:31.917Z,5.95
2018-03-19T02:56:01.740Z,6.40
2018-03-19T02:58:31.621Z,7.03
2018-03-19T03:01:01.430Z,5.87
2018-03-19T03:03:31.251Z,6.22
2018-03-19T03:06:01.159Z,6.05
2018-03-19T03:08:30.952Z,6.75
2018-03-19T03:11:00.794Z,6.05
2018-03-19T03:13:30.601Z,6.80
2018-03-19T03:16:00.426Z,6.72
2018-03-19T03:18:30.224Z,5.72
2018-03-19T03:21:00.039Z,6.85
2018-03-19T03:23:29.882Z,7.55
2018-03-19T03:26:03.480Z,5.85
2018-03-19T03:28:33.042Z,5.22
2018-03-19T03:31:02.851Z,5.47
2018-03-19T03:33:33.137Z,6.60
2018-03-19T03:36:02.972Z,6.75
2018-03-19T03:38:32.781Z,6.00
2018-03-19T03:41:02.605Z,6.57
2018-03-19T03:43:32.440Z,6.30
2018-03-19T03:46:02.242Z,7.10
2018-03-19T03:48:32.033Z,6.62
2018-03-19T03:51:01.861Z,5.40
2018-03-19T03:53:31.671Z,6.57
2018-03-19T03:56:01.491Z,6.00
2018-03-19T03:58:31.349Z,6.12
2018-03-19T04:01:01.154Z,7.07
2018-03-19T04:03:30.976Z,6.45
2018-03-19T04:06:00.788Z,6.62
2018-03-19T04:08:30.586Z,5.85
2018-03-19T04:11:00.425Z,6.47
2018-03-19T04:13:30.242Z,6.12
2018-03-19T04:16:00.154Z,5.90
2018-03-19T04:18:29.993Z,6.47
2018-03-19T04:20:59.852Z,5.95
2018-03-19T04:23:29.672Z,6.55
2018-03-19T04:25:59.945Z,4.87
2018-03-19T04:28:29.761Z,6.15
2018-03-19T04:30:59.575Z,6.22
2018-03-19T04:33:29.380Z,7.03
2018-03-19T04:35:59.190Z,4.85
2018-03-19T04:38:29.051Z,6.90
2018-03-19T04:40:58.863Z,6.32
2018-03-19T04:43:28.689Z,7.22
2018-03-19T04:45:58.494Z,6.72
2018-03-19T04:48:28.306Z,6.60
2018-03-19T04:50:58.107Z,6.35
2018-03-19T04:53:27.911Z,6.00
2018-03-19T04:55:57.768Z,7.50
2018-03-19T04:58:28.045Z,6.43
2018-03-19T05:00:57.856Z,6.85
2018-03-19T05:03:27.740Z,6.32
2018-03-19T05:05:57.597Z,4.95
2018-03-19T05:08:27.496Z,6.07
2018-03-19T05:11:01.031Z,5.97
2018-03-19T05:13:30.551Z,5.00
2018-03-19T05:16:00.331Z,5.60
2018-03-19T05:18:30.229Z,5.03
2018-03-19T05:21:00.069Z,5.35
2018-03-19T05:23:29.862Z,5.95
2018-03-19T05:25:59.687Z,6.25
2018-03-19T05:28:29.509Z,5.47
2018-03-19T05:30:59.420Z,5.90
2018-03-19T05:33:29.275Z,6.45
2018-03-19T05:35:59.151Z,4.87
2018-03-19T05:38:28.958Z,5.43
2018-03-19T05:40:58.773Z,5.15
2018-03-19T05:43:28.790Z,5.25
2018-03-19T05:45:58.562Z,6.18
2018-03-19T05:48:28.136Z,5.18
2018-03-19T05:50:58.030Z,6.10
2018-03-19T05:53:27.964Z,4.72
2018-03-19T05:55:57.805Z,6.37
2018-03-19T05:58:27.603Z,5.35
2018-03-19T06:00:57.510Z,5.62
2018-03-19T06:03:27.310Z,6.37
2018-03-19T06:05:57.209Z,5.57
2018-03-19T06:08:27.107Z,5.65
2018-03-19T06:10:56.955Z,6.10
2018-03-19T06:13:26.760Z,6.50
2018-03-19T06:16:00.695Z,5.68
2018-03-19T06:18:31.029Z,4.68
2018-03-19T06:21:00.829Z,6.20
2018-03-19T06:23:30.839Z,5.65
2018-03-19T06:26:00.672Z,5.10
2018-03-19T06:28:30.543Z,5.68
2018-03-19T06:31:00.385Z,6.00
2018-03-19T06:33:30.841Z,5.70
2018-03-19T06:36:02.659Z,5.28
2018-03-19T06:38:34.296Z,4.80
2018-03-19T06:41:04.213Z,4.72
2018-03-19T06:43:34.046Z,7.28
2018-03-19T06:46:04.469Z,5.72
2018-03-19T06:48:34.398Z,4.85
2018-03-19T06:51:04.247Z,5.10
2018-03-19T06:53:34.148Z,6.62
2018-03-19T06:56:03.863Z,6.12
2018-03-19T06:58:33.721Z,6.22
2018-03-19T07:01:03.606Z,5.47
2018-03-19T07:03:33.491Z,5.47
2018-03-19T07:06:02.343Z,6.20
2018-03-19T07:08:31.939Z,6.10
2018-03-19T07:11:01.747Z,6.15
2018-03-19T07:13:31.579Z,6.28
2018-03-19T07:16:01.434Z,6.50
2018-03-19T07:18:31.258Z,5.50
2018-03-19T07:21:01.179Z,4.75
2018-03-19T07:23:31.034Z,6.25
2018-03-19T07:26:00.850Z,6.65
2018-03-19T07:28:30.655Z,7.35
2018-03-19T07:31:00.219Z,6.68
2018-03-19T07:33:29.877Z,5.65
2018-03-19T07:35:59.681Z,7.35
2018-03-19T07:38:29.705Z,8.60
2018-03-19T07:40:59.540Z,7.03
2018-03-19T07:43:29.535Z,6.62
2018-03-19T07:45:59.388Z,7.00
2018-03-19T07:48:29.607Z,7.30
2018-03-19T07:50:59.780Z,7.35
2018-03-19T07:53:29.585Z,6.18
2018-03-19T07:55:59.376Z,8.00
2018-03-19T07:58:29.227Z,7.72
2018-03-19T08:00:59.064Z,6.45
2018-03-19T08:03:28.871Z,6.62
2018-03-19T08:05:58.682Z,7.40
2018-03-19T08:08:28.741Z,7.15
2018-03-19T08:10:58.966Z,7.47
2018-03-19T08:13:28.799Z,10.95
2018-03-19T08:15:58.702Z,6.65
2018-03-19T08:18:28.573Z,7.10
2018-03-19T08:20:58.398Z,6.28
2018-03-19T08:23:28.211Z,6.05
2018-03-19T08:25:58.077Z,6.18
2018-03-19T08:28:28.078Z,6.70
2018-03-19T08:30:57.909Z,8.30
2018-03-19T08:33:27.729Z,7.47
2018-03-19T08:35:57.553Z,7.22
2018-03-19T08:38:27.374Z,6.97
2018-03-19T08:40:57.186Z,7.87
2018-03-19T08:43:27.012Z,7.28
2018-03-19T08:45:56.817Z,6.85
2018-03-19T08:48:30.775Z,6.95
2018-03-19T08:51:00.752Z,7.65
2018-03-19T08:53:30.588Z,8.27
2018-03-19T08:56:00.408Z,8.30
2018-03-19T08:58:30.755Z,7.50
2018-03-19T09:01:00.560Z,6.90
2018-03-19T09:03:30.429Z,6.82
2018-03-19T09:06:00.253Z,7.70
2018-03-19T09:08:30.151Z,7.32
2018-03-19T09:10:59.988Z,6.72
2018-03-19T09:13:29.816Z,6.97
2018-03-19T09:16:03.704Z,7.50
2018-03-19T09:18:33.588Z,7.72
2018-03-19T09:21:03.405Z,7.75
2018-03-19T09:23:32.800Z,6.55
2018-03-19T09:26:02.598Z,7.97
2018-03-19T09:28:32.280Z,8.20
2018-03-19T09:31:02.132Z,7.37
2018-03-19T09:33:32.192Z,7.97
2018-03-19T09:36:02.016Z,6.80
2018-03-19T09:38:31.920Z,7.57
2018-03-19T09:41:01.717Z,7.43
2018-03-19T09:43:31.561Z,7.18
2018-03-19T09:46:02.189Z,7.10
2018-03-19T09:48:32.022Z,7.55
2018-03-19T09:51:01.750Z,7.22
2018-03-19T09:53:32.280Z,7.97
2018-03-19T09:56:02.108Z,8.70
2018-03-19T09:58:31.937Z,7.57
2018-03-19T10:01:01.742Z,8.35
2018-03-19T10:03:31.562Z,7.95
2018-03-19T10:06:01.469Z,7.93
2018-03-19T10:08:31.310Z,8.25
2018-03-19T10:11:01.154Z,8.45
2018-03-19T10:13:31.035Z,6.30
2018-03-19T10:16:00.845Z,8.30
2018-03-19T10:18:30.693Z,7.97
2018-03-19T10:21:00.534Z,8.30
2018-03-19T10:23:30.324Z,8.05
2018-03-19T10:26:00.128Z,8.55
2018-03-19T10:28:29.991Z,7.28
2018-03-19T10:31:00.590Z,8.90
2018-03-19T10:33:30.364Z,8.60
2018-03-19T10:36:00.223Z,7.45
2018-03-19T10:38:30.333Z,8.43
2018-03-19T10:41:00.183Z,8.30
2018-03-19T10:43:30.052Z,8.32
2018-03-19T10:45:59.910Z,7.80
2018-03-19T10:48:29.812Z,9.05
2018-03-19T10:50:59.613Z,8.80
2018-03-19T10:53:29.448Z,7.90
2018-03-19T10:55:59.304Z,7.12
2018-03-19T10:58:29.137Z,8.68
2018-03-19T11:01:04.462Z,8.75
2018-03-19T11:03:34.128Z,8.18
2018-03-19T11:09:19.059Z,9.50
2018-03-19T11:11:48.875Z,7.60
2018-03-19T11:14:18.904Z,8.63
2018-03-19T11:16:48.750Z,7.80
2018-03-19T11:19:18.599Z,6.78
2018-03-19T11:21:48.381Z,8.13
2018-03-19T11:24:18.223Z,9.02
2018-03-19T11:26:48.080Z,8.15
2018-03-19T11:29:17.932Z,8.38
2018-03-19T11:31:51.726Z,8.88
2018-03-19T11:34:21.524Z,8.50
2018-03-19T11:36:55.523Z,7.75
2018-03-19T11:39:25.401Z,8.30
2018-03-19T11:41:55.219Z,9.45
2018-03-19T11:44:25.041Z,7.50
2018-03-19T11:46:54.915Z,8.05
2018-03-19T11:49:24.705Z,8.90
2018-03-19T11:51:54.566Z,7.78
2018-03-19T11:54:28.506Z,7.70
2018-03-19T11:56:58.059Z,8.93
2018-03-19T11:59:27.687Z,7.70
2018-03-19T12:01:57.481Z,8.55
2018-03-19T12:04:27.337Z,9.02
2018-03-19T12:06:57.154Z,8.45
2018-03-19T12:09:27.076Z,8.10
2018-03-19T12:11:56.880Z,9.00
2018-03-19T12:14:26.703Z,9.68
2018-03-19T12:16:56.596Z,8.60
2018-03-19T12:19:26.274Z,9.43
2018-03-19T12:21:55.738Z,9.00
2018-03-19T12:24:25.588Z,8.90
2018-03-19T12:26:55.597Z,7.70
2018-03-19T12:29:25.489Z,10.55
2018-03-19T12:31:55.332Z,8.90
2018-03-19T12:34:25.143Z,9.43
2018-03-19T12:36:54.956Z,8.90
2018-03-19T12:39:24.825Z,9.48
2018-03-19T12:41:54.803Z,8.27
2018-03-19T12:44:24.628Z,7.95
2018-03-19T12:46:54.452Z,9.35
2018-03-19T12:49:24.264Z,9.48
2018-03-19T12:51:54.070Z,8.50
2018-03-19T12:54:23.894Z,8.68
2018-03-19T12:56:53.744Z,8.65
2018-03-19T12:59:23.924Z,10.32
2018-03-19T13:01:53.862Z,9.63
2018-03-19T13:04:23.713Z,9.40
2018-03-19T13:06:53.518Z,11.48
2018-03-19T13:09:23.210Z,11.73
2018-03-19T13:11:53.167Z,12.77
2018-03-19T13:14:23.595Z,11.05
2018-03-19T13:16:53.405Z,10.48
2018-03-19T13:19:23.208Z,9.43
2018-03-19T13:21:53.023Z,9.80
2018-03-19T13:24:22.975Z,11.07
2018-03-19T13:26:53.004Z,10.68
2018-03-19T13:29:22.862Z,9.65
2018-03-19T13:31:52.711Z,10.63
2018-03-19T13:34:23.585Z,11.48
2018-03-19T13:36:53.397Z,11.05
2018-03-19T13:39:23.631Z,10.32
2018-03-19T13:41:53.508Z,10.60
2018-03-19T13:44:23.298Z,9.27
2018-03-19T13:46:53.127Z,9.40
2018-03-19T13:49:22.752Z,9.38
2018-03-19T13:51:53.485Z,10.05
2018-03-19T13:54:23.326Z,10.43
2018-03-19T13:56:53.136Z,10.10
2018-03-19T13:59:23.076Z,10.18
2018-03-19T14:01:53.037Z,10.77
2018-03-19T14:04:22.886Z,10.82
2018-03-19T14:06:53.037Z,8.80
2018-03-19T14:09:22.873Z,10.50
2018-03-19T14:11:52.893Z,7.15
2018-03-19T14:14:23.104Z,9.48
2018-03-19T14:16:53.430Z,10.02
2018-03-19T14:19:23.257Z,9.75
2018-03-19T14:21:53.189Z,10.38
2018-03-19T14:24:23.049Z,11.70
2018-03-19T14:26:53.019Z,11.88
2018-03-19T14:29:23.563Z,10.27
2018-03-19T14:31:53.390Z,11.35
2018-03-19T14:34:23.212Z,10.90
2018-03-19T14:36:53.075Z,10.60
2018-03-19T14:39:22.933Z,11.57
2018-03-19T14:41:53.114Z,8.63
2018-03-19T14:44:23.068Z,6.95
2018-03-19T14:46:52.935Z,10.02
2018-03-19T14:49:22.771Z,10.30
2018-03-19T14:51:52.596Z,10.45
2018-03-19T14:54:22.862Z,10.07
2018-03-19T14:56:52.764Z,9.90
2018-03-19T14:59:22.454Z,10.43
2018-03-19T15:01:56.184Z,8.88
2018-03-19T15:04:25.788Z,10.45
2018-03-19T15:06:55.634Z,8.70
2018-03-19T15:09:25.497Z,11.07
2018-03-19T15:11:55.325Z,9.63
2018-03-19T15:14:25.149Z,10.30
2018-03-19T15:16:54.973Z,10.55
2018-03-19T15:19:24.527Z,10.52
2018-03-19T15:21:54.374Z,10.43
2018-03-19T15:24:24.708Z,9.98
2018-03-19T15:26:56.148Z,10.23
2018-03-19T15:29:25.977Z,9.88
2018-03-19T15:31:55.804Z,10.02
2018-03-19T15:34:25.708Z,10.40
2018-03-19T15:36:55.712Z,10.75
2018-03-19T15:39:25.513Z,9.13
2018-03-19T15:41:55.354Z,10.30
2018-03-19T15:44:25.774Z,10.20
2018-03-19T15:46:55.588Z,10.23
2018-03-19T15:49:25.462Z,10.20
2018-03-19T15:51:55.434Z,8.95
2018-03-19T15:54:25.261Z,10.77
2018-03-19T15:56:55.109Z,9.15
2018-03-19T15:59:25.501Z,10.02
2018-03-19T16:01:55.489Z,9.65
2018-03-19T16:04:25.363Z,9.98
2018-03-19T16:06:55.008Z,11.10
2018-03-19T16:09:24.907Z,9.98
2018-03-19T16:11:54.712Z,10.38
2018-03-19T16:14:25.029Z,9.23
2018-03-19T16:16:55.273Z,10.43
2018-03-19T16:19:26.788Z,10.32
2018-03-19T16:21:56.753Z,10.25
2018-03-19T16:24:26.643Z,10.48
2018-03-19T16:26:56.498Z,9.52
2018-03-19T16:29:26.375Z,10.50
2018-03-19T16:31:56.179Z,11.35
2018-03-19T16:34:25.980Z,9.95
2018-03-19T16:36:55.866Z,11.10
2018-03-19T16:39:26.022Z,11.52
2018-03-19T16:41:55.862Z,9.55
2018-03-19T16:44:25.741Z,10.85
2018-03-19T16:46:55.814Z,10.40
2018-03-19T16:49:25.706Z,10.60
2018-03-19T16:51:55.558Z,11.38
2018-03-19T16:54:25.362Z,10.13
2018-03-19T16:56:55.200Z,10.50
2018-03-19T16:59:25.222Z,9.70
2018-03-19T17:01:55.016Z,9.73
2018-03-19T17:04:24.824Z,10.60
2018-03-19T17:06:54.645Z,10.50
2018-03-19T17:09:25.095Z,9.77
2018-03-19T17:11:54.720Z,9.80
2018-03-19T17:14:24.539Z,10.40
2018-03-19T17:16:54.420Z,9.70
2018-03-19T17:19:24.320Z,10.20
2018-03-19T17:21:54.154Z,10.93
2018-03-19T17:24:23.980Z,9.35
2018-03-19T17:26:53.866Z,10.07
2018-03-19T17:29:23.673Z,10.73
2018-03-19T17:31:53.361Z,11.82
2018-03-19T17:34:23.211Z,12.75
2018-03-19T17:36:53.014Z,12.10
2018-03-19T17:39:22.848Z,10.20
2018-03-19T17:41:52.761Z,11.55
2018-03-19T17:44:22.644Z,10.95
2018-03-19T17:46:52.474Z,10.30
2018-03-19T17:49:22.326Z,11.15
2018-03-19T17:51:52.144Z,11.30
2018-03-19T17:54:21.977Z,11.25
2018-03-19T17:56:51.833Z,10.20
2018-03-19T17:59:21.644Z,10.80
2018-03-19T18:01:51.462Z,11.82
2018-03-19T18:04:21.349Z,11.23
2018-03-19T18:06:51.172Z,11.27
2018-03-19T18:09:21.115Z,11.85
2018-03-19T18:11:50.701Z,11.15
2018-03-19T18:14:20.560Z,11.57
2018-03-19T18:16:50.402Z,11.65
2018-03-19T18:19:20.332Z,12.15
2018-03-19T18:21:49.960Z,11.70
2018-03-19T18:24:19.797Z,11.73
2018-03-19T18:26:49.641Z,12.73
2018-03-19T18:29:19.475Z,11.40
2018-03-19T18:31:49.409Z,12.27
2018-03-19T18:34:19.358Z,11.25
2018-03-19T18:36:49.147Z,11.10
2018-03-19T18:39:19.328Z,10.10
2018-03-19T18:41:49.154Z,10.82
2018-03-19T18:44:18.968Z,10.85
2018-03-19T18:46:48.777Z,13.00
2018-03-19T18:49:18.584Z,11.85
2018-03-19T18:51:48.488Z,12.35
2018-03-19T18:54:18.328Z,13.00
2018-03-19T18:56:48.176Z,12.10
2018-03-19T18:59:18.012Z,11.02
2018-03-19T19:01:47.843Z,11.93
2018-03-19T19:04:17.707Z,11.45
2018-03-19T19:06:47.760Z,12.37
2018-03-19T19:09:17.585Z,11.40
2018-03-19T19:11:48.196Z,9.85
2018-03-19T19:14:18.034Z,10.68
2018-03-19T19:16:47.864Z,11.05
2018-03-19T19:19:17.676Z,11.38
2018-03-19T19:21:48.136Z,11.95
2018-03-19T19:24:17.706Z,10.30
2018-03-19T19:26:47.558Z,11.18
2018-03-19T19:29:17.216Z,10.85
2018-03-19T19:31:47.053Z,11.82
2018-03-19T19:34:17.098Z,12.27
2018-03-19T19:36:46.937Z,12.68
2018-03-19T19:39:16.750Z,12.98
2018-03-19T19:41:46.585Z,13.05
2018-03-19T19:44:16.383Z,13.32
2018-03-19T19:46:47.139Z,12.37
2018-03-19T19:49:16.972Z,12.18
2018-03-19T19:51:46.787Z,14.63
2018-03-19T19:54:16.625Z,11.75
2018-03-19T19:56:46.453Z,12.93
2018-03-19T19:59:16.611Z,14.50
2018-03-19T20:01:46.423Z,12.40
2018-03-19T20:04:16.293Z,12.43
2018-03-19T20:06:46.118Z,12.27
2018-03-19T20:09:16.086Z,12.30
2018-03-19T20:11:46.487Z,13.23
2018-03-19T20:14:16.321Z,13.13
2018-03-19T20:16:46.143Z,13.50
2018-03-19T20:19:15.944Z,13.40
2018-03-19T20:21:45.753Z,14.15
2018-03-19T20:24:15.572Z,14.48
2018-03-19T20:26:45.414Z,12.45
2018-03-19T20:29:15.288Z,14.63
2018-03-19T20:31:45.129Z,14.30
2018-03-19T20:34:14.946Z,13.43
2018-03-19T20:36:44.735Z,16.30
2018-03-19T20:39:14.546Z,15.10
2018-03-19T20:41:44.434Z,16.65
2018-03-19T20:44:14.310Z,15.70
2018-03-19T20:46:44.113Z,15.23
2018-03-19T20:49:13.930Z,16.83
2018-03-19T20:51:43.789Z,15.43
2018-03-19T20:54:13.630Z,15.90
2018-03-19T20:56:43.960Z,14.75
2018-03-19T20:59:14.708Z,15.15
2018-03-19T21:01:44.737Z,15.23
2018-03-19T21:04:14.556Z,15.75
2018-03-19T21:06:44.386Z,15.07
2018-03-19T21:09:14.543Z,14.80
2018-03-19T21:11:44.609Z,13.50
2018-03-19T21:14:14.444Z,14.70
2018-03-19T21:16:44.437Z,15.27
2018-03-19T21:19:14.293Z,13.35
2018-03-19T21:21:44.194Z,15.93
2018-03-19T21:24:13.990Z,16.02
2018-03-19T21:26:51.576Z,15.77
2018-03-19T21:29:21.931Z,15.93
2018-03-19T21:31:51.748Z,15.30
2018-03-19T21:34:21.610Z,13.68
2018-03-19T21:36:51.470Z,15.85
2018-03-19T21:39:21.292Z,15.02
2018-03-19T21:41:51.161Z,13.95
2018-03-19T21:44:20.986Z,15.18
2018-03-19T21:46:50.639Z,15.13
2018-03-19T21:49:20.431Z,15.90
2018-03-19T21:51:50.250Z,16.50
2018-03-19T21:54:26.674Z,17.48
2018-03-19T21:57:06.593Z,16.42
2018-03-19T21:59:36.852Z,15.77
2018-03-19T22:02:18.452Z,15.93
2018-03-19T22:04:52.333Z,16.67
2018-03-19T22:07:22.298Z,16.30
2018-03-19T22:09:52.300Z,15.25
2018-03-19T22:12:22.232Z,16.77
2018-03-19T22:14:52.112Z,17.67
2018-03-19T22:17:21.919Z,17.50
2018-03-19T22:19:51.820Z,16.92
2018-03-19T22:22:21.788Z,17.60
2018-03-19T22:24:51.589Z,17.85
2018-03-19T22:27:21.441Z,18.17
2018-03-19T22:29:51.353Z,16.37
2018-03-19T22:32:21.258Z,17.10
2018-03-19T22:34:51.056Z,17.58
2018-03-19T22:37:20.912Z,16.77
2018-03-19T22:39:50.730Z,15.50
2018-03-19T22:42:19.987Z,18.15
2018-03-19T22:44:49.608Z,17.45
2018-03-19T22:47:19.249Z,18.20
2018-03-19T22:49:49.070Z,16.98
2018-03-19T22:52:18.947Z,18.12
2018-03-19T22:54:49.434Z,17.52
2018-03-19T22:57:19.554Z,16.10
2018-03-19T22:59:49.357Z,15.50
2018-03-19T23:02:19.281Z,19.75
2018-03-19T23:05:00.410Z,17.67
2018-03-19T23:07:30.077Z,17.92
2018-03-19T23:09:59.962Z,16.67
2018-03-19T23:12:29.970Z,16.67
2018-03-19T23:14:59.976Z,16.35
2018-03-19T23:17:29.769Z,16.48
2018-03-19T23:19:59.609Z,16.08
2018-03-19T23:22:29.208Z,15.80
2018-03-19T23:24:59.015Z,15.38
2018-03-19T23:27:28.845Z,15.90
2018-03-19T23:29:58.650Z,16.12
2018-03-19T23:32:28.273Z,15.65
2018-03-19T23:34:58.092Z,15.00
2018-03-19T23:37:27.932Z,16.30
2018-03-19T23:39:57.804Z,16.25
2018-03-19T23:42:27.607Z,14.98
2018-03-19T23:44:57.505Z,14.75
2018-03-19T23:47:27.317Z,15.38
2018-03-19T23:49:57.159Z,15.73
2018-03-19T23:52:26.978Z,14.87
2018-03-19T23:54:56.793Z,14.32
2018-03-19T23:57:26.593Z,15.38
2018-03-19T23:59:56.409Z,14.40
